sensor_id;sensor_type;location;lat;lon;timestamp;pressure;altitude;pressure_sealevel;temperature;humidity
66857;BME280;53766;50.280;19.160;2023-06-05T00:02:20;98957.84;;;19.30;48.80
66857;BME280;53766;50.280;19.160;2023-06-05T00:04:48;98953.50;;;19.29;48.58
66857;BME280;53766;50.280;19.160;2023-06-05T00:07:15;98952.69;;;19.28;48.80
66857;BME280;53766;50.280;19.160;2023-06-05T00:09:43;98951.03;;;19.27;48.39
66857;BME280;53766;50.280;19.160;2023-06-05T00:12:11;98953.72;;;19.27;48.61
66857;BME280;53766;50.280;19.160;2023-06-05T00:14:38;98944.03;;;19.26;48.41
66857;BME280;53766;50.280;19.160;2023-06-05T00:17:06;98954.72;;;19.26;48.54
66857;BME280;53766;50.280;19.160;2023-06-05T00:19:34;98953.09;;;19.25;48.41
66857;BME280;53766;50.280;19.160;2023-06-05T00:22:01;98952.22;;;19.25;48.39
66857;BME280;53766;50.280;19.160;2023-06-05T00:24:29;98949.56;;;19.25;48.04
66857;BME280;53766;50.280;19.160;2023-06-05T00:26:57;98959.44;;;19.24;48.22
66857;BME280;53766;50.280;19.160;2023-06-05T00:29:25;98951.41;;;19.24;48.16
66857;BME280;53766;50.280;19.160;2023-06-05T00:31:52;98954.31;;;19.23;48.11
66857;BME280;53766;50.280;19.160;2023-06-05T00:34:21;98942.78;;;19.22;48.23
66857;BME280;53766;50.280;19.160;2023-06-05T00:36:48;98942.78;;;19.22;48.12
66857;BME280;53766;50.280;19.160;2023-06-05T00:39:19;98942.78;;;19.22;47.82
66857;BME280;53766;50.280;19.160;2023-06-05T00:41:46;98940.31;;;19.21;48.11
66857;BME280;53766;50.280;19.160;2023-06-05T00:44:14;98942.16;;;19.20;47.94
66857;BME280;53766;50.280;19.160;2023-06-05T00:46:42;98937.84;;;19.19;47.79
66857;BME280;53766;50.280;19.160;2023-06-05T00:49:11;98938.84;;;19.18;47.59
66857;BME280;53766;50.280;19.160;2023-06-05T00:51:40;98947.72;;;19.19;47.69
66857;BME280;53766;50.280;19.160;2023-06-05T00:54:09;98941.53;;;19.18;47.64
66857;BME280;53766;50.280;19.160;2023-06-05T00:56:37;98946.84;;;19.18;47.32
66857;BME280;53766;50.280;19.160;2023-06-05T00:59:07;98942.56;;;19.17;47.54
66857;BME280;53766;50.280;19.160;2023-06-05T01:01:34;98948.09;;;19.16;47.42
66857;BME280;53766;50.280;19.160;2023-06-05T01:04:03;98943.56;;;19.16;47.44
66857;BME280;53766;50.280;19.160;2023-06-05T01:06:31;98942.75;;;19.16;47.35
66857;BME280;53766;50.280;19.160;2023-06-05T01:09:02;98938.22;;;19.16;47.30
66857;BME280;53766;50.280;19.160;2023-06-05T01:11:53;98939.44;;;19.14;46.76
66857;BME280;53766;50.280;19.160;2023-06-05T01:14:27;98941.94;;;19.15;47.00
66857;BME280;53766;50.280;19.160;2023-06-05T01:16:59;98925.28;;;19.13;46.71
66857;BME280;53766;50.280;19.160;2023-06-05T01:19:28;98929.97;;;19.11;46.72
66857;BME280;53766;50.280;19.160;2023-06-05T01:22:00;98931.66;;;19.12;46.26
66857;BME280;53766;50.280;19.160;2023-06-05T01:24:28;98930.19;;;19.09;46.19
66857;BME280;53766;50.280;19.160;2023-06-05T01:30:07;98921.34;;;19.09;46.33
66857;BME280;53766;50.280;19.160;2023-06-05T01:32:45;98921.34;;;19.09;46.30
66857;BME280;53766;50.280;19.160;2023-06-05T01:35:15;98932.03;;;19.09;46.37
66857;BME280;53766;50.280;19.160;2023-06-05T01:37:48;98925.06;;;19.08;45.57
66857;BME280;53766;50.280;19.160;2023-06-05T01:40:19;98934.06;;;19.07;46.22
66857;BME280;53766;50.280;19.160;2023-06-05T01:42:47;98927.09;;;19.06;45.90
66857;BME280;53766;50.280;19.160;2023-06-05T01:45:15;98933.25;;;19.06;45.98
66857;BME280;53766;50.280;19.160;2023-06-05T01:47:44;98930.75;;;19.05;45.62
66857;BME280;53766;50.280;19.160;2023-06-05T01:50:14;98921.94;;;19.04;45.93
66857;BME280;53766;50.280;19.160;2023-06-05T01:52:41;98922.13;;;19.03;45.42
66857;BME280;53766;50.280;19.160;2023-06-05T01:55:14;98925.84;;;19.02;44.90
66857;BME280;53766;50.280;19.160;2023-06-05T01:57:44;98920.50;;;19.02;45.38
66857;BME280;53766;50.280;19.160;2023-06-05T02:00:13;98927.69;;;19.01;45.56
66857;BME280;53766;50.280;19.160;2023-06-05T02:02:44;98922.53;;;19.00;45.56
66857;BME280;53766;50.280;19.160;2023-06-05T02:05:14;98922.53;;;19.00;45.02
66857;BME280;53766;50.280;19.160;2023-06-05T02:07:45;98911.84;;;19.00;45.00
66857;BME280;53766;50.280;19.160;2023-06-05T02:10:16;98922.53;;;19.00;45.23
66857;BME280;53766;50.280;19.160;2023-06-05T02:12:46;98905.47;;;19.01;45.65
66857;BME280;53766;50.280;19.160;2023-06-05T02:15:14;98918.81;;;19.01;45.60
66857;BME280;53766;50.280;19.160;2023-06-05T02:17:43;98914.53;;;19.00;45.73
66857;BME280;53766;50.280;19.160;2023-06-05T02:20:24;98920.88;;;18.99;44.82
66857;BME280;53766;50.280;19.160;2023-06-05T02:22:52;98913.69;;;18.99;44.68
66857;BME280;53766;50.280;19.160;2023-06-05T02:25:20;98922.72;;;18.98;44.28
66857;BME280;53766;50.280;19.160;2023-06-05T02:27:48;98924.56;;;18.98;44.45
66857;BME280;53766;50.280;19.160;2023-06-05T02:30:15;98924.56;;;18.98;44.64
66857;BME280;53766;50.280;19.160;2023-06-05T02:32:43;98919.22;;;18.98;44.88
66857;BME280;53766;50.280;19.160;2023-06-05T02:35:12;98917.59;;;18.97;44.99
66857;BME280;53766;50.280;19.160;2023-06-05T02:37:40;98920.25;;;18.97;44.47
66857;BME280;53766;50.280;19.160;2023-06-05T02:40:12;98922.94;;;18.97;44.40
66857;BME280;53766;50.280;19.160;2023-06-05T02:42:41;98911.41;;;18.96;45.08
66857;BME280;53766;50.280;19.160;2023-06-05T02:45:09;98913.25;;;18.96;44.77
66857;BME280;53766;50.280;19.160;2023-06-05T02:47:37;98908.97;;;18.95;44.49
66857;BME280;53766;50.280;19.160;2023-06-05T02:50:06;98908.97;;;18.95;44.46
66857;BME280;53766;50.280;19.160;2023-06-05T02:52:34;98912.44;;;18.95;44.80
66857;BME280;53766;50.280;19.160;2023-06-05T02:55:03;98915.94;;;18.96;44.55
66857;BME280;53766;50.280;19.160;2023-06-05T02:57:32;98915.31;;;18.94;44.35
66857;BME280;53766;50.280;19.160;2023-06-05T03:00:09;98919.63;;;18.95;44.38
66857;BME280;53766;50.280;19.160;2023-06-05T03:02:37;98913.66;;;18.93;44.61
66857;BME280;53766;50.280;19.160;2023-06-05T03:05:05;98924.97;;;18.95;44.26
66857;BME280;53766;50.280;19.160;2023-06-05T03:07:33;98911.00;;;18.93;43.56
66857;BME280;53766;50.280;19.160;2023-06-05T03:10:01;98910.16;;;18.92;44.10
66857;BME280;53766;50.280;19.160;2023-06-05T03:12:29;98915.50;;;18.92;43.81
66857;BME280;53766;50.280;19.160;2023-06-05T03:14:57;98920.81;;;18.92;43.80
66857;BME280;53766;50.280;19.160;2023-06-05T03:17:24;98920.00;;;18.91;44.09
66857;BME280;53766;50.280;19.160;2023-06-05T03:19:52;98910.38;;;18.90;43.24
66857;BME280;53766;50.280;19.160;2023-06-05T03:22:19;98918.38;;;18.90;43.91
66857;BME280;53766;50.280;19.160;2023-06-05T03:24:48;98930.69;;;18.91;43.65
66857;BME280;53766;50.280;19.160;2023-06-05T03:27:15;98920.00;;;18.91;42.96
66857;BME280;53766;50.280;19.160;2023-06-05T03:29:43;98914.66;;;18.91;43.13
66857;BME280;53766;50.280;19.160;2023-06-05T03:32:10;98920.00;;;18.91;43.04
66857;BME280;53766;50.280;19.160;2023-06-05T03:34:38;98918.16;;;18.92;42.67
66857;BME280;53766;50.280;19.160;2023-06-05T03:37:09;98913.66;;;18.93;42.82
66857;BME280;53766;50.280;19.160;2023-06-05T03:39:37;98914.66;;;18.91;42.01
66857;BME280;53766;50.280;19.160;2023-06-05T03:42:07;98911.81;;;18.93;42.36
66857;BME280;53766;50.280;19.160;2023-06-05T03:44:36;98920.63;;;18.94;42.47
66857;BME280;53766;50.280;19.160;2023-06-05T03:47:04;98924.97;;;18.95;41.65
66857;BME280;53766;50.280;19.160;2023-06-05T03:49:33;98922.31;;;18.95;41.58
66857;BME280;53766;50.280;19.160;2023-06-05T03:52:01;98922.31;;;18.95;41.73
66857;BME280;53766;50.280;19.160;2023-06-05T03:54:29;98928.28;;;18.97;41.22
66857;BME280;53766;50.280;19.160;2023-06-05T03:57:00;98923.75;;;18.97;41.04
66857;BME280;53766;50.280;19.160;2023-06-05T03:59:27;98929.09;;;18.97;41.31
66857;BME280;53766;50.280;19.160;2023-06-05T04:01:56;98934.22;;;18.99;40.95
66857;BME280;53766;50.280;19.160;2023-06-05T04:04:27;98927.88;;;19.00;41.34
66857;BME280;53766;50.280;19.160;2023-06-05T04:06:54;98934.03;;;19.00;41.42
66857;BME280;53766;50.280;19.160;2023-06-05T04:09:22;98929.50;;;19.01;41.60
66857;BME280;53766;50.280;19.160;2023-06-05T04:11:50;98925.00;;;19.01;41.62
66857;BME280;53766;50.280;19.160;2023-06-05T04:14:17;98925.84;;;19.02;41.72
66857;BME280;53766;50.280;19.160;2023-06-05T04:16:45;98924.78;;;19.03;41.42
66857;BME280;53766;50.280;19.160;2023-06-05T04:19:12;98926.47;;;19.04;41.47
66857;BME280;53766;50.280;19.160;2023-06-05T04:21:40;98923.78;;;19.04;41.66
66857;BME280;53766;50.280;19.160;2023-06-05T04:24:09;98930.75;;;19.05;41.62
66857;BME280;53766;50.280;19.160;2023-06-05T04:26:40;98920.94;;;19.05;41.27
66857;BME280;53766;50.280;19.160;2023-06-05T04:29:11;98921.75;;;19.06;41.46
66857;BME280;53766;50.280;19.160;2023-06-05T04:31:46;98918.03;;;19.07;41.53
66857;BME280;53766;50.280;19.160;2023-06-05T04:34:15;98915.38;;;19.07;41.52
66857;BME280;53766;50.280;19.160;2023-06-05T04:36:46;98917.84;;;19.08;41.30
66857;BME280;53766;50.280;19.160;2023-06-05T04:39:17;98915.19;;;19.08;41.29
66857;BME280;53766;50.280;19.160;2023-06-05T04:41:45;98915.00;;;19.10;41.17
66857;BME280;53766;50.280;19.160;2023-06-05T04:44:23;98924.66;;;19.11;40.83
66857;BME280;53766;50.280;19.160;2023-06-05T04:46:51;98929.97;;;19.11;41.13
66857;BME280;53766;50.280;19.160;2023-06-05T04:49:19;98922.59;;;19.13;41.11
66857;BME280;53766;50.280;19.160;2023-06-05T04:51:47;98918.94;;;19.14;41.15
66857;BME280;53766;50.280;19.160;2023-06-05T04:54:14;98918.94;;;19.14;41.30
66857;BME280;53766;50.280;19.160;2023-06-05T04:56:42;98918.53;;;19.17;41.42
66857;BME280;53766;50.280;19.160;2023-06-05T04:59:11;98915.84;;;19.17;41.43
66857;BME280;53766;50.280;19.160;2023-06-05T05:01:39;98912.16;;;19.18;41.46
66857;BME280;53766;50.280;19.160;2023-06-05T05:04:08;98912.78;;;19.20;41.24
66857;BME280;53766;50.280;19.160;2023-06-05T05:06:36;98914.44;;;19.21;41.16
66857;BME280;53766;50.280;19.160;2023-06-05T05:09:04;98921.41;;;19.22;41.20
66857;BME280;53766;50.280;19.160;2023-06-05T05:11:34;98917.75;;;19.23;41.35
66857;BME280;53766;50.280;19.160;2023-06-05T05:14:01;98918.38;;;19.25;41.33
66857;BME280;53766;50.280;19.160;2023-06-05T05:16:29;98917.34;;;19.26;41.19
66857;BME280;53766;50.280;19.160;2023-06-05T05:18:57;98917.97;;;19.28;41.30
66857;BME280;53766;50.280;19.160;2023-06-05T05:21:24;98920.25;;;19.31;40.87
66857;BME280;53766;50.280;19.160;2023-06-05T05:23:52;98925.19;;;19.35;40.72
66857;BME280;53766;50.280;19.160;2023-06-05T05:26:20;98919.44;;;19.38;40.73
66857;BME280;53766;50.280;19.160;2023-06-05T05:28:49;98922.72;;;19.40;40.66
66857;BME280;53766;50.280;19.160;2023-06-05T05:31:17;98920.69;;;19.42;40.62
66857;BME280;53766;50.280;19.160;2023-06-05T05:33:45;98918.66;;;19.44;40.65
66857;BME280;53766;50.280;19.160;2023-06-05T05:36:13;98921.94;;;19.46;40.64
66857;BME280;53766;50.280;19.160;2023-06-05T05:38:41;98927.72;;;19.49;40.46
66857;BME280;53766;50.280;19.160;2023-06-05T05:41:09;98925.47;;;19.53;42.57
66857;BME280;53766;50.280;19.160;2023-06-05T05:43:37;98922.41;;;19.56;41.83
66857;BME280;53766;50.280;19.160;2023-06-05T05:46:04;98922.41;;;19.56;41.48
66857;BME280;53766;50.280;19.160;2023-06-05T05:48:35;98918.69;;;19.57;41.34
66857;BME280;53766;50.280;19.160;2023-06-05T05:51:04;98919.72;;;19.56;41.35
66857;BME280;53766;50.280;19.160;2023-06-05T05:53:33;98927.75;;;19.56;41.28
66857;BME280;53766;50.280;19.160;2023-06-05T05:56:01;98927.75;;;19.56;41.27
66857;BME280;53766;50.280;19.160;2023-06-05T05:58:28;98914.59;;;19.55;41.36
66857;BME280;53766;50.280;19.160;2023-06-05T06:00:56;98926.09;;;19.55;41.35
66857;BME280;53766;50.280;19.160;2023-06-05T06:03:23;98925.06;;;19.56;41.11
66857;BME280;53766;50.280;19.160;2023-06-05T06:05:51;98922.41;;;19.56;41.27
66857;BME280;53766;50.280;19.160;2023-06-05T06:08:18;98931.44;;;19.55;41.30
66857;BME280;53766;50.280;19.160;2023-06-05T06:10:46;98931.44;;;19.55;41.19
66857;BME280;53766;50.280;19.160;2023-06-05T06:13:13;98930.41;;;19.56;41.20
66857;BME280;53766;50.280;19.160;2023-06-05T06:15:41;98927.75;;;19.56;41.35
66857;BME280;53766;50.280;19.160;2023-06-05T06:18:09;98938.44;;;19.56;40.89
66857;BME280;53766;50.280;19.160;2023-06-05T06:20:36;98934.72;;;19.57;41.03
66857;BME280;53766;50.280;19.160;2023-06-05T06:23:04;98939.25;;;19.57;41.13
66857;BME280;53766;50.280;19.160;2023-06-05T06:25:32;98936.38;;;19.58;41.02
66857;BME280;53766;50.280;19.160;2023-06-05T06:28:00;98940.91;;;19.58;40.96
66857;BME280;53766;50.280;19.160;2023-06-05T06:30:27;98932.69;;;19.59;40.94
66857;BME280;53766;50.280;19.160;2023-06-05T06:32:56;98938.03;;;19.59;40.84
66857;BME280;53766;50.280;19.160;2023-06-05T06:35:25;98937.03;;;19.60;40.85
66857;BME280;53766;50.280;19.160;2023-06-05T06:37:54;98935.97;;;19.61;40.75
66857;BME280;53766;50.280;19.160;2023-06-05T06:40:22;98931.44;;;19.62;40.87
66857;BME280;53766;50.280;19.160;2023-06-05T06:42:51;98933.94;;;19.63;40.75
66857;BME280;53766;50.280;19.160;2023-06-05T06:45:19;98940.94;;;19.64;40.68
66857;BME280;53766;50.280;19.160;2023-06-05T06:47:47;98929.22;;;19.65;40.81
66857;BME280;53766;50.280;19.160;2023-06-05T06:50:32;98921.19;;;19.65;40.70
66857;BME280;53766;50.280;19.160;2023-06-05T06:53:00;98930.88;;;19.66;40.95
66857;BME280;53766;50.280;19.160;2023-06-05T06:55:29;98925.31;;;19.68;40.68
66857;BME280;53766;50.280;19.160;2023-06-05T06:57:57;98918.97;;;19.69;40.98
66857;BME280;53766;50.280;19.160;2023-06-05T07:00:24;98916.09;;;19.70;40.73
66857;BME280;53766;50.280;19.160;2023-06-05T07:02:52;98930.09;;;19.72;40.74
66857;BME280;53766;50.280;19.160;2023-06-05T07:05:20;98929.06;;;19.73;40.71
66857;BME280;53766;50.280;19.160;2023-06-05T07:07:47;98928.03;;;19.75;40.61
66857;BME280;53766;50.280;19.160;2023-06-05T07:10:15;98920.88;;;19.75;40.78
66857;BME280;53766;50.280;19.160;2023-06-05T07:12:42;98923.31;;;19.77;40.74
66857;BME280;53766;50.280;19.160;2023-06-05T07:15:10;98919.63;;;19.78;40.83
66857;BME280;53766;50.280;19.160;2023-06-05T07:17:37;98918.59;;;19.79;40.55
66857;BME280;53766;50.280;19.160;2023-06-05T07:20:06;98920.25;;;19.80;40.70
66857;BME280;53766;50.280;19.160;2023-06-05T07:22:34;98917.59;;;19.80;40.58
66857;BME280;53766;50.280;19.160;2023-06-05T07:25:02;98916.53;;;19.81;40.50
66857;BME280;53766;50.280;19.160;2023-06-05T07:27:30;98920.88;;;19.82;40.74
66857;BME280;53766;50.280;19.160;2023-06-05T07:29:57;98918.84;;;19.84;40.49
66857;BME280;53766;50.280;19.160;2023-06-05T07:32:26;98926.63;;;19.85;40.49
66857;BME280;53766;50.280;19.160;2023-06-05T07:34:53;98920.47;;;19.85;40.46
66857;BME280;53766;50.280;19.160;2023-06-05T07:37:21;98918.41;;;19.87;40.59
66857;BME280;53766;50.280;19.160;2023-06-05T07:39:48;98920.06;;;19.88;40.59
66857;BME280;53766;50.280;19.160;2023-06-05T07:42:18;98927.88;;;19.89;40.43
66857;BME280;53766;50.280;19.160;2023-06-05T07:44:46;98912.66;;;19.90;40.54
66857;BME280;53766;50.280;19.160;2023-06-05T07:47:13;98911.84;;;19.89;40.57
66857;BME280;53766;50.280;19.160;2023-06-05T07:49:40;98923.97;;;19.92;40.57
66857;BME280;53766;50.280;19.160;2023-06-05T07:52:08;98920.28;;;19.93;40.39
66857;BME280;53766;50.280;19.160;2023-06-05T07:54:36;98919.25;;;19.94;40.42
66857;BME280;53766;50.280;19.160;2023-06-05T07:57:05;98916.38;;;19.96;40.36
66857;BME280;53766;50.280;19.160;2023-06-05T07:59:35;98916.38;;;19.96;40.27
66857;BME280;53766;50.280;19.160;2023-06-05T08:02:02;98913.53;;;19.97;40.33
66857;BME280;53766;50.280;19.160;2023-06-05T08:04:33;98912.66;;;19.97;40.36
66857;BME280;53766;50.280;19.160;2023-06-05T08:07:02;98910.84;;;19.97;40.37
66857;BME280;53766;50.280;19.160;2023-06-05T08:09:30;98911.47;;;19.99;40.19
66857;BME280;53766;50.280;19.160;2023-06-05T08:11:58;98903.44;;;19.99;40.18
66857;BME280;53766;50.280;19.160;2023-06-05T08:14:25;98905.09;;;20.00;40.28
66857;BME280;53766;50.280;19.160;2023-06-05T08:16:53;98901.41;;;20.01;40.07
66857;BME280;53766;50.280;19.160;2023-06-05T08:19:21;98898.72;;;20.01;40.05
66857;BME280;53766;50.280;19.160;2023-06-05T08:21:52;98901.16;;;20.03;39.92
66857;BME280;53766;50.280;19.160;2023-06-05T08:24:21;98904.66;;;20.03;40.00
66857;BME280;53766;50.280;19.160;2023-06-05T08:26:48;98905.28;;;20.05;39.98
66857;BME280;53766;50.280;19.160;2023-06-05T08:29:16;98897.88;;;20.07;39.91
66857;BME280;53766;50.280;19.160;2023-06-05T08:31:43;98896.25;;;20.06;39.88
66857;BME280;53766;50.280;19.160;2023-06-05T08:34:12;98904.06;;;20.08;39.86
66857;BME280;53766;50.280;19.160;2023-06-05T08:36:39;98902.84;;;20.10;39.96
66857;BME280;53766;50.280;19.160;2023-06-05T08:39:07;98892.16;;;20.10;39.99
66857;BME280;53766;50.280;19.160;2023-06-05T08:41:35;98897.50;;;20.10;39.75
66857;BME280;53766;50.280;19.160;2023-06-05T08:44:03;98899.94;;;20.12;39.87
66857;BME280;53766;50.280;19.160;2023-06-05T08:46:30;98899.75;;;20.13;39.94
66857;BME280;53766;50.280;19.160;2023-06-05T08:49:02;98897.88;;;20.14;39.66
66857;BME280;53766;50.280;19.160;2023-06-05T08:51:33;98901.19;;;20.16;39.83
66857;BME280;53766;50.280;19.160;2023-06-05T08:54:04;98896.69;;;20.17;39.80
66857;BME280;53766;50.280;19.160;2023-06-05T08:56:33;98902.03;;;20.17;39.78
66857;BME280;53766;50.280;19.160;2023-06-05T08:59:04;98896.47;;;20.18;39.73
66857;BME280;53766;50.280;19.160;2023-06-05T09:01:32;98894.63;;;20.19;39.77
66857;BME280;53766;50.280;19.160;2023-06-05T09:04:00;98897.91;;;20.21;39.66
66857;BME280;53766;50.280;19.160;2023-06-05T09:06:27;98894.22;;;20.22;39.61
66857;BME280;53766;50.280;19.160;2023-06-05T09:08:55;98902.03;;;20.23;39.72
66857;BME280;53766;50.280;19.160;2023-06-05T09:11:28;98899.13;;;20.25;39.58
66857;BME280;53766;50.280;19.160;2023-06-05T09:13:58;98893.78;;;20.25;39.73
66857;BME280;53766;50.280;19.160;2023-06-05T09:16:38;98886.38;;;20.27;39.72
66857;BME280;53766;50.280;19.160;2023-06-05T09:19:06;98897.94;;;20.27;39.28
66857;BME280;53766;50.280;19.160;2023-06-05T09:21:35;98889.69;;;20.29;39.57
66857;BME280;53766;50.280;19.160;2023-06-05T09:24:13;98894.00;;;20.30;39.60
66857;BME280;53766;50.280;19.160;2023-06-05T09:26:48;98893.78;;;20.31;39.55
66857;BME280;53766;50.280;19.160;2023-06-05T09:29:38;98891.97;;;20.32;39.43
66857;BME280;53766;50.280;19.160;2023-06-05T09:32:10;98897.94;;;20.34;39.52
66857;BME280;53766;50.280;19.160;2023-06-05T09:34:43;98892.59;;;20.34;39.32
66857;BME280;53766;50.280;19.160;2023-06-05T09:37:12;98893.19;;;20.36;39.26
66857;BME280;53766;50.280;19.160;2023-06-05T09:39:41;98894.84;;;20.37;39.52
66857;BME280;53766;50.280;19.160;2023-06-05T09:42:13;98889.47;;;20.37;39.43
66857;BME280;53766;50.280;19.160;2023-06-05T09:44:41;98890.28;;;20.38;39.36
66857;BME280;53766;50.280;19.160;2023-06-05T09:47:10;98876.72;;;20.39;39.35
66857;BME280;53766;50.280;19.160;2023-06-05T09:52:07;98867.03;;;20.38;39.34
66857;BME280;53766;50.280;19.160;2023-06-05T09:54:40;98881.03;;;20.40;39.23
66857;BME280;53766;50.280;19.160;2023-06-05T09:57:10;98877.34;;;20.41;39.19
66857;BME280;53766;50.280;19.160;2023-06-05T09:59:57;98867.25;;;20.43;39.23
66857;BME280;53766;50.280;19.160;2023-06-05T10:02:33;98872.59;;;20.43;39.30
66857;BME280;53766;50.280;19.160;2023-06-05T10:05:03;98862.53;;;20.45;39.22
66857;BME280;53766;50.280;19.160;2023-06-05T10:07:32;98867.88;;;20.45;39.12
66857;BME280;53766;50.280;19.160;2023-06-05T10:10:00;98868.50;;;20.47;39.17
66857;BME280;53766;50.280;19.160;2023-06-05T10:12:30;98871.16;;;20.47;39.05
66857;BME280;53766;50.280;19.160;2023-06-05T10:14:58;98862.09;;;20.48;39.02
66857;BME280;53766;50.280;19.160;2023-06-05T10:17:27;98862.09;;;20.48;39.05
66857;BME280;53766;50.280;19.160;2023-06-05T10:19:55;98857.38;;;20.50;39.01
66857;BME280;53766;50.280;19.160;2023-06-05T10:22:24;98844.81;;;20.51;38.99
66857;BME280;53766;50.280;19.160;2023-06-05T10:24:55;98847.28;;;20.52;38.78
66857;BME280;53766;50.280;19.160;2023-06-05T10:27:30;98846.03;;;20.55;38.97
66857;BME280;53766;50.280;19.160;2023-06-05T10:38:44;98851.84;;;20.59;38.81
66857;BME280;53766;50.280;19.160;2023-06-05T10:41:12;98848.13;;;20.60;38.61
66857;BME280;53766;50.280;19.160;2023-06-05T10:43:46;98856.75;;;20.62;38.62
66857;BME280;53766;50.280;19.160;2023-06-05T10:46:28;98846.06;;;20.62;38.70
66857;BME280;53766;50.280;19.160;2023-06-05T10:49:08;98847.72;;;20.63;38.61
66857;BME280;53766;50.280;19.160;2023-06-05T10:54:12;98852.03;;;20.64;38.44
66857;BME280;53766;50.280;19.160;2023-06-05T10:59:28;98845.66;;;20.65;38.35
66857;BME280;53766;50.280;19.160;2023-06-05T11:07:21;98839.47;;;20.71;38.37
66857;BME280;53766;50.280;19.160;2023-06-05T11:17:40;98833.69;;;20.74;38.40
66857;BME280;53766;50.280;19.160;2023-06-05T11:25:28;98844.81;;;20.78;38.53
66857;BME280;53766;50.280;19.160;2023-06-05T11:28:01;98836.56;;;20.79;38.13
66857;BME280;53766;50.280;19.160;2023-06-05T11:30:41;98844.38;;;20.81;38.29
66857;BME280;53766;50.280;19.160;2023-06-05T11:33:17;98850.56;;;20.81;38.16
66857;BME280;53766;50.280;19.160;2023-06-05T11:35:48;98848.50;;;20.83;38.29
66857;BME280;53766;50.280;19.160;2023-06-05T11:38:20;98836.16;;;20.82;38.04
66857;BME280;53766;50.280;19.160;2023-06-05T11:40:53;98823.78;;;20.81;38.00
66857;BME280;53766;50.280;19.160;2023-06-05T11:43:21;98829.56;;;20.78;38.19
66857;BME280;53766;50.280;19.160;2023-06-05T11:45:54;98833.47;;;20.82;38.18
66857;BME280;53766;50.280;19.160;2023-06-05T11:48:23;98827.06;;;20.83;38.05
66857;BME280;53766;50.280;19.160;2023-06-05T11:53:23;98826.66;;;20.86;38.05
66857;BME280;53766;50.280;19.160;2023-06-05T11:55:52;98815.34;;;20.84;38.13
66857;BME280;53766;50.280;19.160;2023-06-05T11:58:24;98825.44;;;20.82;38.13
66857;BME280;53766;50.280;19.160;2023-06-05T12:00:52;98811.00;;;20.83;38.08
66857;BME280;53766;50.280;19.160;2023-06-05T12:03:30;98810.59;;;20.86;37.93
66857;BME280;53766;50.280;19.160;2023-06-05T12:06:01;98819.25;;;20.88;37.97
66857;BME280;53766;50.280;19.160;2023-06-05T12:08:32;98808.53;;;20.88;38.02
66857;BME280;53766;50.280;19.160;2023-06-05T12:11:02;98812.66;;;20.91;37.98
66857;BME280;53766;50.280;19.160;2023-06-05T12:13:49;98809.75;;;20.92;38.06
66857;BME280;53766;50.280;19.160;2023-06-05T12:16:20;98800.69;;;20.93;38.09
66857;BME280;53766;50.280;19.160;2023-06-05T12:18:47;98805.00;;;20.94;37.96
66857;BME280;53766;50.280;19.160;2023-06-05T12:21:32;98814.69;;;20.95;37.95
66857;BME280;53766;50.280;19.160;2023-06-05T12:24:02;98807.25;;;20.98;37.86
66857;BME280;53766;50.280;19.160;2023-06-05T12:29:22;98799.63;;;21.01;37.96
66857;BME280;53766;50.280;19.160;2023-06-05T12:31:51;98803.94;;;21.02;37.91
66857;BME280;53766;50.280;19.160;2023-06-05T12:34:18;98804.34;;;21.06;37.73
66857;BME280;53766;50.280;19.160;2023-06-05T12:36:46;98794.47;;;21.06;37.86
66857;BME280;53766;50.280;19.160;2023-06-05T12:39:14;98793.66;;;21.06;37.95
66857;BME280;53766;50.280;19.160;2023-06-05T12:41:45;98793.22;;;21.09;37.91
66857;BME280;53766;50.280;19.160;2023-06-05T12:44:12;98795.69;;;21.10;37.77
66857;BME280;53766;50.280;19.160;2023-06-05T12:46:39;98782.06;;;21.12;37.69
66857;BME280;53766;50.280;19.160;2023-06-05T12:49:07;98787.41;;;21.12;37.81
66857;BME280;53766;50.280;19.160;2023-06-05T12:51:35;98784.53;;;21.13;37.73
66857;BME280;53766;50.280;19.160;2023-06-05T12:54:03;98782.47;;;21.15;37.78
66857;BME280;53766;50.280;19.160;2023-06-05T12:56:30;98782.66;;;21.14;37.81
66857;BME280;53766;50.280;19.160;2023-06-05T12:59:02;98770.94;;;21.15;37.75
66857;BME280;53766;50.280;19.160;2023-06-05T13:01:29;98775.06;;;21.11;37.94
66857;BME280;53766;50.280;19.160;2023-06-05T13:03:58;98776.31;;;21.08;38.00
66857;BME280;53766;50.280;19.160;2023-06-05T13:06:26;98777.59;;;21.06;37.97
66857;BME280;53766;50.280;19.160;2023-06-05T13:08:55;98774.28;;;21.04;38.07
66857;BME280;53766;50.280;19.160;2023-06-05T13:11:22;98769.13;;;21.02;37.92
66857;BME280;53766;50.280;19.160;2023-06-05T13:13:50;98766.66;;;21.01;37.96
66857;BME280;53766;50.280;19.160;2023-06-05T13:16:18;98769.56;;;20.99;37.91
66857;BME280;53766;50.280;19.160;2023-06-05T13:18:45;98766.06;;;20.99;37.83
66857;BME280;53766;50.280;19.160;2023-06-05T13:21:12;98760.69;;;20.99;37.94
66857;BME280;53766;50.280;19.160;2023-06-05T13:23:43;98763.38;;;20.99;37.77
66857;BME280;53766;50.280;19.160;2023-06-05T13:26:11;98760.94;;;20.97;37.83
66857;BME280;53766;50.280;19.160;2023-06-05T13:28:38;98761.94;;;20.96;37.87
66857;BME280;53766;50.280;19.160;2023-06-05T13:31:06;98756.41;;;20.98;37.93
66857;BME280;53766;50.280;19.160;2023-06-05T13:33:33;98761.75;;;20.98;37.92
66857;BME280;53766;50.280;19.160;2023-06-05T13:36:01;98761.31;;;21.01;37.93
66857;BME280;53766;50.280;19.160;2023-06-05T13:38:28;98749.59;;;21.02;37.88
66857;BME280;53766;50.280;19.160;2023-06-05T13:40:56;98745.03;;;21.02;37.86
66857;BME280;53766;50.280;19.160;2023-06-05T13:43:23;98741.72;;;21.07;37.96
66857;BME280;53766;50.280;19.160;2023-06-05T13:45:51;98746.06;;;21.08;38.00